Bellatrix — XUAB4 — position and weather

sailwx.info

Track history (hours):
 
Tides and Currents Weather Stations Pressure Air Temp Water Temp Dewpoint Dewpoint Depression Visibility Wind Speed Wind Dir Waves Ship Positions

Bellatrix

Last reported at 2016-Aug-11 14:13 UTC. Time now 2016-Aug-31 06:07 UTC.
Position N 44°14' E 034°51'.
Warning: this ship's position is 19 days out of date.

Length 114 m; draft 3.9 m.

Type: Cargo ship. MMSI: 515288000.

Date/timePositionNaut miles runAvg speedWind from/ knotsBaromVisibWave heightAir tempDewpointWater temp
2016-Aug-11 14:13N 44°14' E 034°51'4 6.6
2016-Aug-11 13:33N 44°17' E 034°54'10 6.9
2016-Aug-11 12:04N 44°26' E 035°03'4 7.2
2016-Aug-11 11:34N 44°29' E 035°06'7 7.3
2016-Aug-11 10:34N 44°35' E 035°12'68 5.5
2016-Aug-10 22:22N 45°15' E 036°28'5 5.6
2016-Aug-10 21:32N 45°19' E 036°32'6 6.3
2016-Aug-10 20:34N 45°22' E 036°40'6 6.2
2016-Aug-10 19:33N 45°28' E 036°39'1 0.6
2016-Aug-10 18:33N 45°29' E 036°39'6 6.1
2016-Aug-10 17:33N 45°32' E 036°46'7 6.8
2016-Aug-10 16:33N 45°38' E 036°51'7 6.9
2016-Aug-10 15:31N 45°44' E 036°55'  
Track history (hours):
 
Tides and Currents Weather Stations Pressure Air Temp Water Temp Dewpoint Dewpoint Depression Visibility Wind Speed Wind Dir Waves Ship Positions

Bellatrix

Last reported at 2016-Aug-11 14:13 UTC. Time now 2016-Aug-31 06:07 UTC.
Position N 44°14' E 034°51'.
Warning: this ship's position is 19 days out of date.

Length 114 m; draft 3.9 m.

Type: Cargo ship. MMSI: 515288000.

Date/timePositionNaut miles runAvg speedWind from/ knotsBaromVisibWave heightAir tempDewpointWater temp
2016-Aug-11 14:13N 44°14' E 034°51'4 6.6
2016-Aug-11 13:33N 44°17' E 034°54'10 6.9
2016-Aug-11 12:04N 44°26' E 035°03'4 7.2
2016-Aug-11 11:34N 44°29' E 035°06'7 7.3
2016-Aug-11 10:34N 44°35' E 035°12'68 5.5
2016-Aug-10 22:22N 45°15' E 036°28'5 5.6
2016-Aug-10 21:32N 45°19' E 036°32'6 6.3
2016-Aug-10 20:34N 45°22' E 036°40'6 6.2
2016-Aug-10 19:33N 45°28' E 036°39'1 0.6
2016-Aug-10 18:33N 45°29' E 036°39'6 6.1
2016-Aug-10 17:33N 45°32' E 036°46'7 6.8
2016-Aug-10 16:33N 45°38' E 036°51'7 6.9
2016-Aug-10 15:31N 45°44' E 036°55'  

Dump ship's entire track history